createdAt,value
2023-05-06T00:01:05.959Z,6.03
2023-05-06T00:03:40.503Z,6.88
2023-05-06T00:06:12.155Z,8.55
2023-05-06T00:08:40.184Z,8.30
2023-05-06T00:11:09.212Z,6.22
2023-05-06T00:13:38.159Z,8.48
2023-05-06T00:16:07.682Z,8.18
2023-05-06T00:18:40.889Z,8.45
2023-05-06T00:21:07.996Z,7.57
2023-05-06T00:23:38.569Z,6.20
2023-05-06T00:26:08.909Z,5.22
2023-05-06T00:28:44.032Z,4.32
2023-05-06T00:31:12.370Z,6.85
2023-05-06T00:33:44.757Z,4.35
2023-05-06T00:36:11.911Z,4.97
2023-05-06T00:38:42.716Z,6.82
2023-05-06T00:41:16.038Z,8.07
2023-05-06T00:43:43.157Z,6.88
2023-05-06T00:46:11.916Z,5.00
2023-05-06T00:48:40.101Z,5.90
2023-05-06T00:51:08.608Z,5.75
2023-05-06T00:53:40.314Z,5.20
2023-05-06T00:56:09.091Z,6.35
2023-05-06T00:58:52.681Z,6.00
2023-05-06T01:01:22.865Z,5.63
2023-05-06T01:03:57.630Z,4.07
2023-05-06T01:06:54.885Z,3.78
2023-05-06T01:09:29.893Z,3.75
2023-05-06T01:12:07.191Z,3.47
2023-05-06T01:15:11.029Z,3.78
2023-05-06T01:17:50.109Z,4.05
2023-05-06T01:20:21.856Z,5.38
2023-05-06T01:22:50.315Z,2.83
2023-05-06T01:25:21.806Z,4.80
2023-05-06T01:27:57.149Z,4.88
2023-05-06T01:30:32.901Z,4.85
2023-05-06T01:33:16.494Z,2.70
2023-05-06T01:35:47.566Z,3.97
2023-05-06T01:38:24.782Z,4.82
2023-05-06T01:40:55.678Z,5.05
2023-05-06T01:43:27.147Z,4.63
2023-05-06T01:48:57.322Z,3.80
2023-05-06T01:51:26.456Z,6.38
2023-05-06T01:53:57.140Z,5.97
2023-05-06T01:56:26.235Z,8.13
2023-05-06T02:01:48.733Z,8.90
2023-05-06T02:04:24.364Z,8.80
2023-05-06T02:06:57.431Z,8.93
2023-05-06T02:09:27.494Z,9.25
2023-05-06T02:12:00.082Z,8.52
2023-05-06T02:14:30.054Z,8.30
2023-05-06T02:17:03.664Z,11.95
2023-05-06T02:19:30.952Z,11.75
2023-05-06T02:21:58.918Z,9.50
2023-05-06T02:24:29.906Z,12.32
2023-05-06T02:27:02.510Z,9.88
2023-05-06T02:29:31.785Z,7.30
2023-05-06T02:32:00.350Z,7.60
2023-05-06T02:37:10.033Z,7.53
2023-05-06T02:39:38.284Z,10.98
2023-05-06T02:42:11.288Z,8.45
2023-05-06T02:44:42.080Z,10.45
2023-05-06T02:47:10.529Z,10.05
2023-05-06T02:49:37.936Z,9.15
2023-05-06T02:52:05.723Z,9.32
2023-05-06T02:54:32.709Z,9.63
2023-05-06T02:57:01.765Z,9.60
2023-05-06T02:59:37.136Z,8.32
2023-05-06T03:02:07.048Z,10.98
2023-05-06T03:07:21.274Z,11.82
2023-05-06T03:09:52.128Z,7.30
2023-05-06T03:12:22.416Z,8.82
2023-05-06T03:14:52.386Z,7.25
2023-05-06T03:17:20.900Z,7.72
2023-05-06T03:19:57.197Z,6.10
2023-05-06T03:22:25.555Z,7.30
2023-05-06T03:24:53.082Z,8.05
2023-05-06T03:27:22.552Z,7.28
2023-05-06T03:29:53.595Z,8.57
2023-05-06T03:32:25.910Z,7.60
2023-05-06T03:34:53.668Z,7.80
2023-05-06T03:37:28.484Z,9.80
2023-05-06T03:40:01.594Z,8.90
2023-05-06T03:42:30.287Z,9.93
2023-05-06T03:45:00.029Z,7.30
2023-05-06T03:47:29.783Z,9.10
2023-05-06T03:49:59.950Z,10.68
2023-05-06T03:52:26.962Z,8.98
2023-05-06T03:54:54.018Z,9.63
2023-05-06T03:57:23.957Z,7.35
2023-05-06T03:59:51.260Z,6.88
2023-05-06T04:02:20.365Z,6.88
2023-05-06T04:04:49.743Z,8.95
2023-05-06T04:07:17.601Z,7.88
2023-05-06T04:09:46.900Z,9.10
2023-05-06T04:12:15.355Z,10.07
2023-05-06T04:14:43.449Z,8.43
2023-05-06T04:17:14.204Z,8.55
2023-05-06T04:19:47.809Z,7.90
2023-05-06T04:22:14.912Z,5.25
2023-05-06T04:24:46.461Z,7.03
2023-05-06T04:27:15.314Z,6.13
2023-05-06T04:29:45.530Z,6.07
2023-05-06T04:32:26.529Z,6.15
2023-05-06T04:34:57.555Z,5.90
2023-05-06T04:37:49.708Z,4.78
2023-05-06T04:40:26.491Z,6.40
2023-05-06T04:42:57.401Z,6.68
2023-05-06T04:45:36.278Z,6.50
2023-05-06T04:50:47.548Z,8.35
2023-05-06T04:53:16.995Z,4.95
2023-05-06T04:55:47.840Z,5.45
2023-05-06T05:01:43.365Z,3.10
2023-05-06T05:04:23.801Z,3.65
2023-05-06T05:07:41.924Z,5.57
2023-05-06T05:10:46.685Z,5.38
2023-05-06T05:17:07.717Z,3.20
2023-05-06T05:27:23.684Z,4.43
2023-05-06T05:30:26.348Z,4.60
2023-05-06T05:35:53.871Z,4.63
2023-05-06T05:38:48.880Z,4.80
2023-05-06T05:41:30.194Z,4.15
2023-05-06T05:46:44.172Z,6.75
2023-05-06T05:49:14.781Z,4.60
2023-05-06T05:51:42.475Z,6.05
2023-05-06T05:54:14.567Z,5.97
2023-05-06T05:56:44.327Z,6.15
2023-05-06T05:59:15.060Z,6.43
2023-05-06T06:07:15.136Z,8.55
2023-05-06T06:10:02.758Z,8.43
2023-05-06T06:13:17.707Z,8.43
2023-05-06T06:15:54.216Z,7.93
2023-05-06T06:25:31.384Z,6.88
2023-05-06T06:32:36.507Z,7.72
2023-05-06T06:35:13.019Z,9.18
2023-05-06T06:37:41.949Z,11.85
2023-05-06T06:40:13.817Z,8.60
2023-05-06T06:46:00.615Z,6.07
2023-05-06T06:49:09.566Z,6.78
2023-05-06T06:51:45.036Z,8.93
2023-05-06T07:00:19.592Z,7.72
2023-05-06T07:03:41.125Z,6.10
2023-05-06T07:06:26.431Z,7.25
2023-05-06T07:08:55.465Z,6.68
2023-05-06T07:11:29.724Z,5.97
2023-05-06T07:14:10.474Z,7.80
2023-05-06T07:17:34.602Z,6.88
2023-05-06T07:20:57.809Z,5.35
2023-05-06T07:47:33.105Z,6.32
2023-05-06T07:50:11.402Z,9.57
2023-05-06T07:56:07.505Z,6.57
2023-05-06T08:01:29.762Z,7.45
2023-05-06T08:04:21.875Z,6.30
2023-05-06T08:06:52.839Z,7.03
2023-05-06T08:09:24.547Z,7.15
2023-05-06T08:11:54.915Z,4.82
2023-05-06T08:14:31.016Z,5.22
2023-05-06T08:16:59.242Z,4.43
2023-05-06T08:19:35.124Z,8.18
2023-05-06T08:22:07.086Z,5.75
2023-05-06T08:24:42.137Z,6.55
2023-05-06T08:27:34.819Z,5.10
2023-05-06T08:30:04.288Z,6.65
2023-05-06T08:32:35.970Z,5.93
2023-05-06T08:35:04.374Z,6.23
2023-05-06T08:37:31.525Z,5.63
2023-05-06T08:40:00.950Z,4.38
2023-05-06T08:42:31.103Z,5.57
2023-05-06T08:44:59.815Z,5.68
2023-05-06T08:47:28.956Z,3.88
2023-05-06T08:49:57.537Z,5.65
2023-05-06T08:52:28.756Z,4.05
2023-05-06T08:55:05.469Z,8.07
2023-05-06T08:57:35.601Z,5.10
2023-05-06T09:00:03.999Z,5.03
2023-05-06T09:02:32.704Z,3.47
2023-05-06T09:05:03.576Z,3.63
2023-05-06T09:07:47.551Z,5.53
2023-05-06T09:10:27.242Z,6.18
2023-05-06T09:12:55.577Z,10.32
2023-05-06T09:15:29.708Z,5.63
2023-05-06T09:18:00.349Z,5.65
2023-05-06T09:20:42.154Z,4.90
2023-05-06T09:23:13.518Z,3.83
2023-05-06T09:25:49.503Z,5.95
2023-05-06T09:31:14.397Z,5.68
2023-05-06T09:34:14.789Z,6.05
2023-05-06T09:37:21.078Z,6.53
2023-05-06T09:39:53.533Z,4.60
2023-05-06T09:42:33.164Z,6.32
2023-05-06T09:45:52.378Z,6.43
2023-05-06T09:48:22.806Z,4.13
2023-05-06T09:50:57.926Z,7.10
2023-05-06T09:53:52.956Z,3.70
2023-05-06T09:56:28.488Z,7.88
2023-05-06T09:59:24.764Z,4.78
2023-05-06T10:01:57.208Z,4.25
2023-05-06T10:04:27.782Z,7.68
2023-05-06T10:07:00.888Z,2.22
2023-05-06T10:09:31.319Z,4.13
2023-05-06T10:12:02.841Z,4.18
2023-05-06T10:14:32.042Z,3.65
2023-05-06T10:17:03.566Z,4.50
2023-05-06T10:19:32.497Z,4.97
2023-05-06T10:22:16.661Z,5.07
2023-05-06T10:24:54.281Z,4.63
2023-05-06T10:27:25.372Z,4.43
2023-05-06T10:29:59.767Z,5.43
2023-05-06T10:32:33.506Z,4.78
2023-05-06T10:35:17.668Z,5.28
2023-05-06T10:37:50.108Z,7.75
2023-05-06T10:40:17.604Z,6.85
2023-05-06T10:42:44.923Z,5.68
2023-05-06T10:45:12.358Z,4.75
2023-05-06T10:47:57.011Z,4.97
2023-05-06T10:50:28.681Z,5.80
2023-05-06T10:53:00.606Z,6.45
2023-05-06T10:55:29.244Z,6.28
2023-05-06T10:58:17.154Z,7.72
2023-05-06T11:00:54.763Z,7.30
2023-05-06T11:03:24.541Z,5.95
2023-05-06T11:05:52.621Z,5.20
2023-05-06T11:08:27.184Z,5.28
2023-05-06T11:10:56.625Z,4.03
2023-05-06T11:13:36.952Z,5.82
2023-05-06T11:16:04.091Z,6.55
2023-05-06T11:18:36.955Z,6.45
2023-05-06T11:21:30.686Z,3.95
2023-05-06T11:27:30.063Z,6.75
2023-05-06T11:30:24.184Z,3.70
2023-05-06T11:32:56.418Z,5.50
2023-05-06T11:37:53.767Z,6.32
2023-05-06T11:40:33.716Z,6.82
2023-05-06T11:43:15.870Z,7.68
2023-05-06T11:45:52.951Z,4.50
2023-05-06T11:48:20.030Z,6.47
2023-05-06T11:50:49.376Z,8.95
2023-05-06T11:53:21.747Z,3.90
2023-05-06T11:58:38.276Z,7.72
2023-05-06T12:01:05.758Z,7.97
2023-05-06T12:03:34.890Z,5.68
2023-05-06T12:06:05.756Z,5.50
2023-05-06T12:08:36.869Z,7.05
2023-05-06T12:11:16.996Z,10.15
2023-05-06T12:13:45.226Z,5.32
2023-05-06T12:16:15.432Z,8.80
2023-05-06T12:18:48.546Z,5.63
2023-05-06T12:21:41.623Z,5.82
2023-05-06T12:24:11.092Z,6.45
2023-05-06T12:26:49.099Z,6.75
2023-05-06T12:29:17.529Z,6.30
2023-05-06T12:31:47.371Z,4.38
2023-05-06T12:34:16.966Z,8.95
2023-05-06T12:36:48.691Z,5.55
2023-05-06T12:39:17.672Z,8.30
2023-05-06T12:41:46.586Z,5.10
2023-05-06T12:44:37.833Z,5.95
2023-05-06T12:47:09.008Z,8.02
2023-05-06T12:50:01.475Z,6.63
2023-05-06T12:52:33.388Z,7.43
2023-05-06T12:55:07.041Z,8.30
2023-05-06T12:57:38.692Z,9.85
2023-05-06T13:00:12.595Z,8.77
2023-05-06T13:02:42.351Z,8.15
2023-05-06T13:05:10.209Z,4.03
2023-05-06T13:07:45.777Z,6.90
2023-05-06T13:10:22.683Z,7.75
2023-05-06T13:12:50.146Z,4.47
2023-05-06T13:15:18.415Z,10.30
2023-05-06T13:17:46.229Z,10.25
2023-05-06T13:20:40.597Z,7.35
2023-05-06T13:28:35.595Z,7.50
2023-05-06T13:32:03.899Z,8.40
2023-05-06T13:37:19.921Z,9.95
2023-05-06T13:39:52.048Z,11.48
2023-05-06T13:42:19.432Z,8.95
2023-05-06T13:44:55.155Z,5.90
2023-05-06T13:47:23.165Z,11.90
2023-05-06T13:49:50.460Z,9.00
2023-05-06T13:52:20.301Z,5.47
2023-05-06T13:54:48.821Z,7.55
2023-05-06T13:57:18.103Z,6.55
2023-05-06T13:59:45.568Z,8.18
2023-05-06T14:02:13.557Z,7.18
2023-05-06T14:04:42.017Z,7.63
2023-05-06T14:07:10.690Z,7.32
2023-05-06T14:09:38.405Z,8.77
2023-05-06T14:12:05.923Z,7.50
2023-05-06T14:14:33.553Z,10.32
2023-05-06T14:17:00.473Z,6.43
2023-05-06T14:19:36.339Z,7.82
2023-05-06T14:22:29.576Z,5.93
2023-05-06T14:25:01.487Z,10.75
2023-05-06T14:27:59.448Z,6.03
2023-05-06T14:30:26.490Z,6.47
2023-05-06T14:32:55.203Z,6.97
2023-05-06T14:35:22.569Z,8.13
2023-05-06T14:42:19.238Z,8.13
2023-05-06T14:44:51.352Z,8.98
2023-05-06T14:47:28.537Z,7.95
2023-05-06T14:49:56.143Z,7.80
2023-05-06T14:52:30.665Z,9.65
2023-05-06T14:55:00.602Z,12.68
2023-05-06T14:57:28.536Z,10.85
2023-05-06T14:59:55.947Z,6.43
2023-05-06T15:02:31.635Z,11.77
2023-05-06T15:05:03.752Z,11.50
2023-05-06T15:07:33.241Z,7.97
2023-05-06T15:10:00.639Z,10.30
2023-05-06T15:12:33.284Z,11.90
2023-05-06T15:15:05.372Z,8.90
2023-05-06T15:17:36.708Z,11.55
2023-05-06T15:20:07.003Z,9.52
2023-05-06T15:22:39.916Z,7.50
2023-05-06T15:25:09.446Z,8.18
2023-05-06T15:27:39.383Z,11.18
2023-05-06T15:30:08.310Z,12.25
2023-05-06T15:32:37.045Z,7.57
2023-05-06T15:35:05.116Z,10.32
2023-05-06T15:37:40.201Z,12.35
2023-05-06T15:40:12.489Z,12.18
2023-05-06T15:42:43.408Z,8.15
2023-05-06T15:45:12.448Z,10.95
2023-05-06T15:50:32.552Z,8.80
2023-05-06T15:53:02.311Z,8.18
2023-05-06T15:55:45.166Z,13.38
2023-05-06T15:58:17.120Z,7.75
2023-05-06T16:00:45.327Z,11.13
2023-05-06T16:03:13.977Z,12.98
2023-05-06T16:05:44.494Z,12.88
2023-05-06T16:12:34.154Z,12.27
2023-05-06T16:15:07.384Z,11.45
2023-05-06T16:17:41.774Z,9.88
2023-05-06T16:20:14.964Z,16.77
2023-05-06T16:26:09.471Z,13.45
2023-05-06T16:28:40.764Z,13.82
2023-05-06T16:31:13.563Z,8.00
2023-05-06T16:33:41.703Z,9.60
2023-05-06T16:36:08.932Z,9.70
2023-05-06T16:39:08.531Z,12.07
2023-05-06T16:41:36.542Z,15.85
2023-05-06T16:51:28.816Z,12.35
2023-05-06T16:56:51.469Z,14.43
2023-05-06T17:02:05.597Z,14.38
2023-05-06T17:04:32.618Z,9.73
2023-05-06T17:07:01.176Z,11.30
2023-05-06T17:09:30.914Z,13.13
2023-05-06T17:14:43.723Z,10.60
2023-05-06T17:17:15.413Z,11.43
2023-05-06T17:19:42.396Z,10.98
2023-05-06T17:22:12.059Z,9.30
2023-05-06T17:24:41.462Z,12.93
2023-05-06T17:27:19.199Z,10.60
2023-05-06T17:29:48.700Z,10.35
2023-05-06T17:32:18.660Z,12.43
2023-05-06T17:34:49.742Z,11.35
2023-05-06T17:37:18.377Z,15.40
2023-05-06T17:39:47.330Z,12.45
2023-05-06T17:42:14.557Z,14.88
2023-05-06T17:44:42.913Z,9.63
2023-05-06T17:47:15.536Z,9.98
2023-05-06T17:49:42.832Z,13.43
2023-05-06T17:52:09.869Z,14.90
2023-05-06T17:54:41.057Z,7.55
2023-05-06T17:57:34.623Z,14.88
2023-05-06T18:00:28.305Z,12.07
2023-05-06T18:03:14.524Z,10.50
2023-05-06T18:10:10.182Z,15.85
2023-05-06T18:12:45.213Z,14.30
2023-05-06T18:15:19.450Z,9.93
2023-05-06T18:17:56.719Z,17.95
2023-05-06T18:20:25.642Z,12.88
2023-05-06T18:22:57.155Z,12.00
2023-05-06T18:25:24.571Z,13.17
2023-05-06T18:27:55.251Z,17.95
2023-05-06T18:35:48.674Z,15.00
2023-05-06T18:38:28.027Z,11.75
2023-05-06T18:40:57.442Z,13.13
2023-05-06T18:43:24.880Z,14.27
2023-05-06T18:46:00.845Z,16.00
2023-05-06T18:48:34.546Z,14.18
2023-05-06T18:54:00.873Z,11.15
2023-05-06T18:56:42.882Z,17.85
2023-05-06T18:59:15.381Z,11.82
2023-05-06T19:01:47.480Z,11.95
2023-05-06T19:07:05.606Z,12.43
2023-05-06T19:09:37.015Z,11.98
2023-05-06T19:12:06.994Z,12.60
2023-05-06T19:14:35.286Z,13.02
2023-05-06T19:17:07.740Z,14.25
2023-05-06T19:19:44.327Z,12.55
2023-05-06T19:22:32.990Z,9.35
2023-05-06T19:25:02.245Z,17.33
2023-05-06T19:27:33.357Z,12.45
2023-05-06T19:30:02.566Z,15.40
2023-05-06T19:32:33.810Z,11.82
2023-05-06T19:35:15.749Z,11.35
2023-05-06T19:37:49.492Z,16.93
2023-05-06T19:40:19.164Z,10.50
2023-05-06T19:42:47.005Z,18.73
2023-05-06T19:45:20.226Z,13.07
2023-05-06T19:47:51.897Z,9.35
2023-05-06T19:50:21.914Z,18.13
2023-05-06T19:53:06.354Z,11.50
2023-05-06T19:59:35.964Z,16.92
2023-05-06T20:02:04.690Z,16.67
2023-05-06T20:04:37.536Z,18.05
2023-05-06T20:12:17.997Z,19.23
2023-05-06T20:14:50.863Z,20.75
2023-05-06T20:17:18.188Z,17.23
2023-05-06T20:19:55.183Z,19.02
2023-05-06T20:22:34.503Z,15.57
2023-05-06T20:25:38.083Z,22.02
2023-05-06T20:28:13.984Z,18.30
2023-05-06T20:30:51.755Z,18.92
2023-05-06T20:33:22.318Z,17.35
2023-05-06T20:36:06.038Z,15.60
2023-05-06T20:38:35.343Z,21.38
2023-05-06T20:41:03.491Z,15.00
2023-05-06T20:43:58.618Z,20.75
2023-05-06T20:46:28.028Z,17.10
2023-05-06T20:48:59.045Z,21.45
2023-05-06T20:51:31.657Z,15.85
2023-05-06T20:56:44.283Z,17.00
2023-05-06T20:59:15.669Z,17.75
2023-05-06T21:01:44.910Z,15.93
2023-05-06T21:04:12.006Z,13.80
2023-05-06T21:07:10.182Z,14.07
2023-05-06T21:09:39.177Z,15.65
2023-05-06T21:12:11.792Z,14.73
2023-05-06T21:14:41.961Z,12.65
2023-05-06T21:17:17.099Z,16.83
2023-05-06T21:19:57.608Z,19.45
2023-05-06T21:22:25.065Z,17.55
2023-05-06T21:25:24.133Z,17.65
2023-05-06T21:32:21.661Z,16.55
2023-05-06T21:34:52.442Z,16.77
2023-05-06T21:37:23.307Z,17.50
2023-05-06T21:39:52.757Z,18.73
2023-05-06T21:42:27.637Z,17.40
2023-05-06T21:44:58.772Z,14.02
2023-05-06T21:47:30.783Z,14.73
2023-05-06T21:50:07.461Z,19.45
2023-05-06T21:52:42.667Z,17.73
2023-05-06T21:55:15.283Z,19.85
2023-05-06T21:58:18.909Z,23.20
2023-05-06T22:00:48.533Z,16.70
2023-05-06T22:03:18.846Z,16.70
2023-05-06T22:05:50.297Z,14.77
2023-05-06T22:08:34.576Z,17.48
2023-05-06T22:20:50.899Z,21.30
2023-05-06T22:24:14.098Z,15.57
2023-05-06T22:26:46.165Z,19.73
2023-05-06T22:29:16.530Z,25.08
2023-05-06T22:32:45.357Z,18.08
2023-05-06T22:35:17.428Z,19.55
2023-05-06T22:37:45.204Z,20.67
2023-05-06T22:40:13.424Z,13.38
2023-05-06T22:42:40.593Z,15.82
2023-05-06T22:45:09.832Z,17.52
2023-05-06T22:47:37.087Z,14.07
2023-05-06T22:50:09.268Z,16.70
2023-05-06T22:52:40.461Z,14.55
2023-05-06T22:55:59.230Z,15.95
2023-05-06T22:58:30.418Z,10.65
2023-05-06T23:01:23.624Z,14.20
2023-05-06T23:03:51.335Z,19.83
2023-05-06T23:06:54.704Z,16.08
2023-05-06T23:10:40.223Z,11.20
2023-05-06T23:13:08.827Z,16.00
2023-05-06T23:15:39.211Z,12.27
2023-05-06T23:18:12.293Z,12.70
2023-05-06T23:20:44.777Z,18.23
2023-05-06T23:23:12.762Z,11.38
2023-05-06T23:25:42.379Z,17.15
2023-05-06T23:28:21.105Z,14.10
2023-05-06T23:31:20.491Z,13.15
2023-05-06T23:35:01.646Z,14.57
2023-05-06T23:37:54.076Z,15.60
2023-05-06T23:44:37.898Z,13.93
2023-05-06T23:47:07.115Z,14.70
2023-05-06T23:49:36.632Z,12.30
2023-05-06T23:52:04.167Z,13.07
2023-05-06T23:54:39.749Z,12.35
2023-05-06T23:57:10.066Z,14.65
2023-05-06T23:59:38.149Z,12.70
